sensor_id;sensor_type;location;lat;lon;timestamp;P1;durP1;ratioP1;P2;durP2;ratioP2
75993;SDS011;64680;53.800;9.988;2023-04-25T00:02:24;17.08;;;4.53;;
75993;SDS011;64680;53.800;9.988;2023-04-25T00:04:50;13.05;;;3.28;;
75993;SDS011;64680;53.800;9.988;2023-04-25T00:07:17;12.95;;;3.33;;
75993;SDS011;64680;53.800;9.988;2023-04-25T00:09:42;14.55;;;3.50;;
75993;SDS011;64680;53.800;9.988;2023-04-25T00:12:08;13.80;;;2.95;;
75993;SDS011;64680;53.800;9.988;2023-04-25T00:14:34;15.65;;;3.17;;
75993;SDS011;64680;53.800;9.988;2023-04-25T00:17:00;11.55;;;2.75;;
75993;SDS011;64680;53.800;9.988;2023-04-25T00:19:26;15.38;;;2.40;;
75993;SDS011;64680;53.800;9.988;2023-04-25T00:21:53;11.35;;;3.17;;
75993;SDS011;64680;53.800;9.988;2023-04-25T00:24:19;9.25;;;2.47;;
75993;SDS011;64680;53.800;9.988;2023-04-25T00:26:45;16.98;;;3.47;;
75993;SDS011;64680;53.800;9.988;2023-04-25T00:29:11;14.52;;;3.53;;
75993;SDS011;64680;53.800;9.988;2023-04-25T00:31:36;15.70;;;3.25;;
75993;SDS011;64680;53.800;9.988;2023-04-25T00:34:02;12.77;;;2.95;;
75993;SDS011;64680;53.800;9.988;2023-04-25T00:36:27;20.30;;;3.30;;
75993;SDS011;64680;53.800;9.988;2023-04-25T00:38:53;16.25;;;3.13;;
75993;SDS011;64680;53.800;9.988;2023-04-25T00:41:20;13.15;;;3.45;;
75993;SDS011;64680;53.800;9.988;2023-04-25T00:43:45;12.93;;;2.22;;
75993;SDS011;64680;53.800;9.988;2023-04-25T00:46:12;13.75;;;2.70;;
75993;SDS011;64680;53.800;9.988;2023-04-25T00:48:38;14.68;;;2.42;;
75993;SDS011;64680;53.800;9.988;2023-04-25T00:51:03;13.82;;;3.05;;
75993;SDS011;64680;53.800;9.988;2023-04-25T00:53:29;16.85;;;3.55;;
75993;SDS011;64680;53.800;9.988;2023-04-25T00:55:57;16.80;;;2.28;;
75993;SDS011;64680;53.800;9.988;2023-04-25T00:58:23;14.63;;;2.63;;
75993;SDS011;64680;53.800;9.988;2023-04-25T01:00:50;15.70;;;3.17;;
75993;SDS011;64680;53.800;9.988;2023-04-25T01:03:19;13.10;;;2.30;;
75993;SDS011;64680;53.800;9.988;2023-04-25T01:05:46;12.07;;;2.55;;
75993;SDS011;64680;53.800;9.988;2023-04-25T01:08:13;13.75;;;3.22;;
75993;SDS011;64680;53.800;9.988;2023-04-25T01:10:39;16.63;;;2.92;;
75993;SDS011;64680;53.800;9.988;2023-04-25T01:13:05;12.95;;;3.22;;
75993;SDS011;64680;53.800;9.988;2023-04-25T01:15:32;12.63;;;2.97;;
75993;SDS011;64680;53.800;9.988;2023-04-25T01:17:58;14.05;;;2.72;;
75993;SDS011;64680;53.800;9.988;2023-04-25T01:20:25;13.32;;;2.90;;
75993;SDS011;64680;53.800;9.988;2023-04-25T01:22:53;16.80;;;3.25;;
75993;SDS011;64680;53.800;9.988;2023-04-25T01:25:21;11.65;;;2.67;;
75993;SDS011;64680;53.800;9.988;2023-04-25T01:27:47;14.38;;;2.45;;
75993;SDS011;64680;53.800;9.988;2023-04-25T01:30:13;16.13;;;3.10;;
75993;SDS011;64680;53.800;9.988;2023-04-25T01:32:39;15.27;;;3.13;;
75993;SDS011;64680;53.800;9.988;2023-04-25T01:35:07;14.55;;;2.90;;
75993;SDS011;64680;53.800;9.988;2023-04-25T01:37:37;15.70;;;3.10;;
75993;SDS011;64680;53.800;9.988;2023-04-25T01:40:07;12.18;;;2.53;;
75993;SDS011;64680;53.800;9.988;2023-04-25T01:42:35;20.95;;;4.15;;
75993;SDS011;64680;53.800;9.988;2023-04-25T01:45:06;12.60;;;2.92;;
75993;SDS011;64680;53.800;9.988;2023-04-25T01:47:33;13.23;;;3.47;;
75993;SDS011;64680;53.800;9.988;2023-04-25T01:50:05;12.07;;;3.25;;
75993;SDS011;64680;53.800;9.988;2023-04-25T01:52:32;19.55;;;2.65;;
75993;SDS011;64680;53.800;9.988;2023-04-25T01:54:57;16.00;;;2.42;;
75993;SDS011;64680;53.800;9.988;2023-04-25T01:57:25;12.70;;;2.28;;
75993;SDS011;64680;53.800;9.988;2023-04-25T01:59:51;16.15;;;2.85;;
75993;SDS011;64680;53.800;9.988;2023-04-25T02:02:23;12.27;;;2.80;;
75993;SDS011;64680;53.800;9.988;2023-04-25T02:04:48;15.70;;;2.92;;
75993;SDS011;64680;53.800;9.988;2023-04-25T02:07:14;12.55;;;2.90;;
75993;SDS011;64680;53.800;9.988;2023-04-25T02:09:40;14.07;;;2.67;;
75993;SDS011;64680;53.800;9.988;2023-04-25T02:12:07;21.63;;;2.92;;
75993;SDS011;64680;53.800;9.988;2023-04-25T02:17:00;12.90;;;2.38;;
75993;SDS011;64680;53.800;9.988;2023-04-25T02:19:25;11.98;;;2.25;;
75993;SDS011;64680;53.800;9.988;2023-04-25T02:21:51;13.20;;;2.28;;
75993;SDS011;64680;53.800;9.988;2023-04-25T02:24:16;13.52;;;2.45;;
75993;SDS011;64680;53.800;9.988;2023-04-25T02:26:42;12.23;;;2.20;;
75993;SDS011;64680;53.800;9.988;2023-04-25T02:29:09;14.18;;;2.70;;
75993;SDS011;64680;53.800;9.988;2023-04-25T02:31:35;11.75;;;2.50;;
75993;SDS011;64680;53.800;9.988;2023-04-25T02:34:00;12.18;;;2.80;;
75993;SDS011;64680;53.800;9.988;2023-04-25T02:36:26;11.88;;;2.55;;
75993;SDS011;64680;53.800;9.988;2023-04-25T02:38:52;15.80;;;2.40;;
75993;SDS011;64680;53.800;9.988;2023-04-25T02:41:18;14.10;;;2.92;;
75993;SDS011;64680;53.800;9.988;2023-04-25T02:43:43;12.88;;;2.58;;
75993;SDS011;64680;53.800;9.988;2023-04-25T02:46:09;11.60;;;2.15;;
75993;SDS011;64680;53.800;9.988;2023-04-25T02:48:34;13.98;;;2.72;;
75993;SDS011;64680;53.800;9.988;2023-04-25T02:51:00;13.55;;;2.50;;
75993;SDS011;64680;53.800;9.988;2023-04-25T02:53:25;19.40;;;2.95;;
75993;SDS011;64680;53.800;9.988;2023-04-25T02:55:51;13.95;;;2.20;;
75993;SDS011;64680;53.800;9.988;2023-04-25T02:58:17;12.20;;;2.17;;
75993;SDS011;64680;53.800;9.988;2023-04-25T03:00:43;9.68;;;2.78;;
75993;SDS011;64680;53.800;9.988;2023-04-25T03:03:09;10.88;;;2.13;;
75993;SDS011;64680;53.800;9.988;2023-04-25T03:05:35;14.32;;;3.33;;
75993;SDS011;64680;53.800;9.988;2023-04-25T03:08:01;19.25;;;2.95;;
75993;SDS011;64680;53.800;9.988;2023-04-25T03:10:26;10.02;;;2.40;;
75993;SDS011;64680;53.800;9.988;2023-04-25T03:12:52;12.73;;;2.22;;
75993;SDS011;64680;53.800;9.988;2023-04-25T03:15:18;13.77;;;3.25;;
75993;SDS011;64680;53.800;9.988;2023-04-25T03:17:43;12.60;;;2.53;;
75993;SDS011;64680;53.800;9.988;2023-04-25T03:20:09;12.95;;;2.42;;
75993;SDS011;64680;53.800;9.988;2023-04-25T03:22:35;14.98;;;2.72;;
75993;SDS011;64680;53.800;9.988;2023-04-25T03:25:01;15.70;;;2.83;;
75993;SDS011;64680;53.800;9.988;2023-04-25T03:27:27;12.05;;;2.65;;
75993;SDS011;64680;53.800;9.988;2023-04-25T03:29:53;11.52;;;2.65;;
75993;SDS011;64680;53.800;9.988;2023-04-25T03:32:18;15.52;;;2.40;;
75993;SDS011;64680;53.800;9.988;2023-04-25T03:34:44;13.50;;;2.90;;
75993;SDS011;64680;53.800;9.988;2023-04-25T03:37:10;15.55;;;2.60;;
75993;SDS011;64680;53.800;9.988;2023-04-25T03:39:35;13.18;;;2.47;;
75993;SDS011;64680;53.800;9.988;2023-04-25T03:42:01;11.82;;;2.55;;
75993;SDS011;64680;53.800;9.988;2023-04-25T03:44:27;11.82;;;2.47;;
75993;SDS011;64680;53.800;9.988;2023-04-25T03:46:53;17.75;;;2.63;;
75993;SDS011;64680;53.800;9.988;2023-04-25T03:49:18;14.85;;;2.95;;
75993;SDS011;64680;53.800;9.988;2023-04-25T03:51:44;15.18;;;3.17;;
75993;SDS011;64680;53.800;9.988;2023-04-25T03:54:10;13.93;;;3.00;;
75993;SDS011;64680;53.800;9.988;2023-04-25T03:56:35;11.45;;;2.67;;
75993;SDS011;64680;53.800;9.988;2023-04-25T03:59:01;16.63;;;2.53;;
75993;SDS011;64680;53.800;9.988;2023-04-25T04:01:30;12.43;;;2.72;;
75993;SDS011;64680;53.800;9.988;2023-04-25T04:03:56;11.32;;;2.25;;
75993;SDS011;64680;53.800;9.988;2023-04-25T04:06:23;12.13;;;2.30;;
75993;SDS011;64680;53.800;9.988;2023-04-25T04:08:48;11.90;;;2.50;;
75993;SDS011;64680;53.800;9.988;2023-04-25T04:11:14;12.05;;;2.40;;
75993;SDS011;64680;53.800;9.988;2023-04-25T04:13:39;12.77;;;2.63;;
75993;SDS011;64680;53.800;9.988;2023-04-25T04:16:05;14.95;;;2.05;;
75993;SDS011;64680;53.800;9.988;2023-04-25T04:18:31;10.77;;;1.77;;
75993;SDS011;64680;53.800;9.988;2023-04-25T04:20:58;14.80;;;2.58;;
75993;SDS011;64680;53.800;9.988;2023-04-25T04:23:24;11.23;;;1.88;;
75993;SDS011;64680;53.800;9.988;2023-04-25T04:25:49;11.95;;;2.05;;
75993;SDS011;64680;53.800;9.988;2023-04-25T04:28:15;10.60;;;1.80;;
75993;SDS011;64680;53.800;9.988;2023-04-25T04:30:41;7.30;;;1.85;;
75993;SDS011;64680;53.800;9.988;2023-04-25T04:33:07;10.52;;;2.05;;
75993;SDS011;64680;53.800;9.988;2023-04-25T04:35:34;13.35;;;2.22;;
75993;SDS011;64680;53.800;9.988;2023-04-25T04:37:59;11.63;;;2.60;;
75993;SDS011;64680;53.800;9.988;2023-04-25T04:40:25;10.70;;;2.85;;
75993;SDS011;64680;53.800;9.988;2023-04-25T04:42:51;8.82;;;1.83;;
75993;SDS011;64680;53.800;9.988;2023-04-25T04:45:18;7.90;;;2.33;;
75993;SDS011;64680;53.800;9.988;2023-04-25T04:47:43;13.05;;;1.95;;
75993;SDS011;64680;53.800;9.988;2023-04-25T04:50:09;9.43;;;1.75;;
75993;SDS011;64680;53.800;9.988;2023-04-25T04:52:35;12.98;;;1.92;;
75993;SDS011;64680;53.800;9.988;2023-04-25T04:55:02;10.95;;;2.10;;
75993;SDS011;64680;53.800;9.988;2023-04-25T04:57:29;7.28;;;1.73;;
75993;SDS011;64680;53.800;9.988;2023-04-25T04:59:54;10.00;;;1.67;;
75993;SDS011;64680;53.800;9.988;2023-04-25T05:02:20;8.65;;;1.33;;
75993;SDS011;64680;53.800;9.988;2023-04-25T05:04:46;9.30;;;2.13;;
75993;SDS011;64680;53.800;9.988;2023-04-25T05:07:11;7.70;;;1.85;;
75993;SDS011;64680;53.800;9.988;2023-04-25T05:09:37;9.57;;;1.77;;
75993;SDS011;64680;53.800;9.988;2023-04-25T05:12:03;13.55;;;1.90;;
75993;SDS011;64680;53.800;9.988;2023-04-25T05:14:29;10.48;;;1.50;;
75993;SDS011;64680;53.800;9.988;2023-04-25T05:16:54;13.43;;;1.85;;
75993;SDS011;64680;53.800;9.988;2023-04-25T05:19:20;12.30;;;1.60;;
75993;SDS011;64680;53.800;9.988;2023-04-25T05:21:45;9.48;;;1.92;;
75993;SDS011;64680;53.800;9.988;2023-04-25T05:24:11;12.82;;;2.15;;
75993;SDS011;64680;53.800;9.988;2023-04-25T05:26:37;12.52;;;2.20;;
75993;SDS011;64680;53.800;9.988;2023-04-25T05:29:03;9.10;;;2.15;;
75993;SDS011;64680;53.800;9.988;2023-04-25T05:31:28;7.97;;;1.63;;
75993;SDS011;64680;53.800;9.988;2023-04-25T05:33:54;10.00;;;1.65;;
75993;SDS011;64680;53.800;9.988;2023-04-25T05:36:19;9.60;;;1.33;;
75993;SDS011;64680;53.800;9.988;2023-04-25T05:38:45;10.23;;;1.95;;
75993;SDS011;64680;53.800;9.988;2023-04-25T05:41:11;8.73;;;2.58;;
75993;SDS011;64680;53.800;9.988;2023-04-25T05:43:36;7.50;;;1.55;;
75993;SDS011;64680;53.800;9.988;2023-04-25T05:46:02;4.55;;;1.40;;
75993;SDS011;64680;53.800;9.988;2023-04-25T05:48:27;7.22;;;1.70;;
75993;SDS011;64680;53.800;9.988;2023-04-25T05:50:53;9.45;;;1.60;;
75993;SDS011;64680;53.800;9.988;2023-04-25T05:53:19;6.47;;;1.73;;
75993;SDS011;64680;53.800;9.988;2023-04-25T05:55:46;7.80;;;2.28;;
75993;SDS011;64680;53.800;9.988;2023-04-25T05:58:12;7.80;;;2.05;;
75993;SDS011;64680;53.800;9.988;2023-04-25T06:00:37;8.13;;;2.08;;
75993;SDS011;64680;53.800;9.988;2023-04-25T06:03:03;9.95;;;2.50;;
75993;SDS011;64680;53.800;9.988;2023-04-25T06:05:29;6.82;;;1.67;;
75993;SDS011;64680;53.800;9.988;2023-04-25T06:07:55;12.57;;;1.98;;
75993;SDS011;64680;53.800;9.988;2023-04-25T06:10:21;8.90;;;2.00;;
75993;SDS011;64680;53.800;9.988;2023-04-25T06:12:47;11.10;;;3.05;;
75993;SDS011;64680;53.800;9.988;2023-04-25T06:15:13;9.15;;;1.95;;
75993;SDS011;64680;53.800;9.988;2023-04-25T06:17:40;9.95;;;1.90;;
75993;SDS011;64680;53.800;9.988;2023-04-25T06:20:06;10.45;;;2.47;;
75993;SDS011;64680;53.800;9.988;2023-04-25T06:22:33;12.00;;;2.25;;
75993;SDS011;64680;53.800;9.988;2023-04-25T06:24:58;10.63;;;1.75;;
75993;SDS011;64680;53.800;9.988;2023-04-25T06:27:25;10.18;;;1.77;;
75993;SDS011;64680;53.800;9.988;2023-04-25T06:29:51;14.90;;;2.30;;
75993;SDS011;64680;53.800;9.988;2023-04-25T06:32:16;11.48;;;1.70;;
75993;SDS011;64680;53.800;9.988;2023-04-25T06:34:43;6.47;;;1.60;;
75993;SDS011;64680;53.800;9.988;2023-04-25T06:37:09;10.05;;;2.33;;
75993;SDS011;64680;53.800;9.988;2023-04-25T06:39:34;7.53;;;1.23;;
75993;SDS011;64680;53.800;9.988;2023-04-25T06:42:00;12.98;;;1.77;;
75993;SDS011;64680;53.800;9.988;2023-04-25T06:44:26;13.55;;;1.65;;
75993;SDS011;64680;53.800;9.988;2023-04-25T06:49:19;7.28;;;1.13;;
75993;SDS011;64680;53.800;9.988;2023-04-25T06:51:45;5.75;;;0.90;;
75993;SDS011;64680;53.800;9.988;2023-04-25T06:54:11;4.18;;;1.10;;
75993;SDS011;64680;53.800;9.988;2023-04-25T06:56:36;7.05;;;1.08;;
75993;SDS011;64680;53.800;9.988;2023-04-25T06:59:02;4.03;;;1.40;;
75993;SDS011;64680;53.800;9.988;2023-04-25T07:01:28;4.90;;;0.93;;
75993;SDS011;64680;53.800;9.988;2023-04-25T07:03:53;8.20;;;1.10;;
75993;SDS011;64680;53.800;9.988;2023-04-25T07:06:19;3.97;;;1.10;;
75993;SDS011;64680;53.800;9.988;2023-04-25T07:08:45;8.35;;;1.33;;
75993;SDS011;64680;53.800;9.988;2023-04-25T07:11:11;9.23;;;1.15;;
75993;SDS011;64680;53.800;9.988;2023-04-25T07:13:36;9.90;;;1.00;;
75993;SDS011;64680;53.800;9.988;2023-04-25T07:16:02;4.93;;;0.80;;
75993;SDS011;64680;53.800;9.988;2023-04-25T07:18:28;4.57;;;0.70;;
75993;SDS011;64680;53.800;9.988;2023-04-25T07:20:53;9.23;;;1.77;;
75993;SDS011;64680;53.800;9.988;2023-04-25T07:23:19;4.25;;;1.35;;
75993;SDS011;64680;53.800;9.988;2023-04-25T07:25:45;6.43;;;1.33;;
75993;SDS011;64680;53.800;9.988;2023-04-25T07:28:11;4.70;;;1.10;;
75993;SDS011;64680;53.800;9.988;2023-04-25T07:30:37;8.85;;;1.20;;
75993;SDS011;64680;53.800;9.988;2023-04-25T07:33:03;9.43;;;1.55;;
75993;SDS011;64680;53.800;9.988;2023-04-25T07:35:29;7.03;;;0.98;;
75993;SDS011;64680;53.800;9.988;2023-04-25T07:37:54;10.02;;;1.50;;
75993;SDS011;64680;53.800;9.988;2023-04-25T07:40:20;7.68;;;1.45;;
75993;SDS011;64680;53.800;9.988;2023-04-25T07:42:46;10.35;;;1.40;;
75993;SDS011;64680;53.800;9.988;2023-04-25T07:45:12;7.10;;;1.48;;
75993;SDS011;64680;53.800;9.988;2023-04-25T07:47:37;7.90;;;1.48;;
75993;SDS011;64680;53.800;9.988;2023-04-25T07:50:03;5.43;;;1.10;;
75993;SDS011;64680;53.800;9.988;2023-04-25T07:52:29;7.55;;;1.45;;
75993;SDS011;64680;53.800;9.988;2023-04-25T07:54:55;7.15;;;1.27;;
75993;SDS011;64680;53.800;9.988;2023-04-25T07:57:21;7.57;;;1.48;;
75993;SDS011;64680;53.800;9.988;2023-04-25T07:59:46;8.15;;;1.10;;
75993;SDS011;64680;53.800;9.988;2023-04-25T08:02:12;10.70;;;1.20;;
75993;SDS011;64680;53.800;9.988;2023-04-25T08:04:38;7.63;;;1.85;;
75993;SDS011;64680;53.800;9.988;2023-04-25T08:07:04;8.30;;;1.45;;
75993;SDS011;64680;53.800;9.988;2023-04-25T08:09:29;6.38;;;1.55;;
75993;SDS011;64680;53.800;9.988;2023-04-25T08:11:59;11.80;;;1.45;;
75993;SDS011;64680;53.800;9.988;2023-04-25T08:14:26;7.28;;;1.10;;
75993;SDS011;64680;53.800;9.988;2023-04-25T08:16:51;5.43;;;1.35;;
75993;SDS011;64680;53.800;9.988;2023-04-25T08:19:17;11.48;;;1.58;;
75993;SDS011;64680;53.800;9.988;2023-04-25T08:21:42;7.75;;;1.15;;
75993;SDS011;64680;53.800;9.988;2023-04-25T08:24:08;7.20;;;1.67;;
75993;SDS011;64680;53.800;9.988;2023-04-25T08:26:33;9.27;;;1.55;;
75993;SDS011;64680;53.800;9.988;2023-04-25T08:28:59;5.20;;;1.70;;
75993;SDS011;64680;53.800;9.988;2023-04-25T08:31:25;5.35;;;1.00;;
75993;SDS011;64680;53.800;9.988;2023-04-25T08:33:50;6.13;;;1.02;;
75993;SDS011;64680;53.800;9.988;2023-04-25T08:36:16;4.53;;;0.77;;
75993;SDS011;64680;53.800;9.988;2023-04-25T08:38:43;5.78;;;1.10;;
75993;SDS011;64680;53.800;9.988;2023-04-25T08:41:09;7.18;;;0.88;;
75993;SDS011;64680;53.800;9.988;2023-04-25T08:43:36;2.30;;;1.02;;
75993;SDS011;64680;53.800;9.988;2023-04-25T08:46:02;8.85;;;1.13;;
75993;SDS011;64680;53.800;9.988;2023-04-25T08:48:28;6.05;;;0.85;;
75993;SDS011;64680;53.800;9.988;2023-04-25T08:50:57;8.18;;;1.00;;
75993;SDS011;64680;53.800;9.988;2023-04-25T08:53:27;6.68;;;1.05;;
75993;SDS011;64680;53.800;9.988;2023-04-25T08:55:57;7.22;;;1.40;;
75993;SDS011;64680;53.800;9.988;2023-04-25T08:58:24;5.60;;;1.15;;
75993;SDS011;64680;53.800;9.988;2023-04-25T09:00:50;5.18;;;1.25;;
75993;SDS011;64680;53.800;9.988;2023-04-25T09:03:17;9.43;;;1.48;;
75993;SDS011;64680;53.800;9.988;2023-04-25T09:05:43;4.78;;;0.85;;
75993;SDS011;64680;53.800;9.988;2023-04-25T09:08:09;3.80;;;0.90;;
75993;SDS011;64680;53.800;9.988;2023-04-25T09:10:35;3.53;;;0.98;;
75993;SDS011;64680;53.800;9.988;2023-04-25T09:13:02;2.65;;;0.57;;
75993;SDS011;64680;53.800;9.988;2023-04-25T09:15:49;2.72;;;0.77;;
75993;SDS011;64680;53.800;9.988;2023-04-25T09:18:30;2.80;;;0.55;;
75993;SDS011;64680;53.800;9.988;2023-04-25T09:21:18;5.22;;;0.77;;
75993;SDS011;64680;53.800;9.988;2023-04-25T09:23:47;4.00;;;0.80;;
75993;SDS011;64680;53.800;9.988;2023-04-25T09:26:15;3.85;;;0.60;;
75993;SDS011;64680;53.800;9.988;2023-04-25T09:28:42;3.28;;;0.57;;
75993;SDS011;64680;53.800;9.988;2023-04-25T09:31:09;6.00;;;0.68;;
75993;SDS011;64680;53.800;9.988;2023-04-25T09:36:10;3.88;;;0.70;;
75993;SDS011;64680;53.800;9.988;2023-04-25T09:38:44;5.75;;;0.60;;
75993;SDS011;64680;53.800;9.988;2023-04-25T09:41:10;4.82;;;0.98;;
75993;SDS011;64680;53.800;9.988;2023-04-25T09:43:37;6.85;;;1.10;;
75993;SDS011;64680;53.800;9.988;2023-04-25T09:46:07;3.75;;;0.60;;
75993;SDS011;64680;53.800;9.988;2023-04-25T09:48:34;4.15;;;0.70;;
75993;SDS011;64680;53.800;9.988;2023-04-25T09:51:03;7.10;;;0.80;;
75993;SDS011;64680;53.800;9.988;2023-04-25T09:53:39;7.97;;;1.20;;
75993;SDS011;64680;53.800;9.988;2023-04-25T10:01:03;4.03;;;0.73;;
75993;SDS011;64680;53.800;9.988;2023-04-25T10:03:33;4.25;;;1.17;;
75993;SDS011;64680;53.800;9.988;2023-04-25T10:06:01;6.82;;;1.27;;
75993;SDS011;64680;53.800;9.988;2023-04-25T10:08:31;5.75;;;0.85;;
75993;SDS011;64680;53.800;9.988;2023-04-25T10:11:02;7.30;;;1.58;;
75993;SDS011;64680;53.800;9.988;2023-04-25T10:13:30;3.10;;;1.02;;
75993;SDS011;64680;53.800;9.988;2023-04-25T10:15:57;5.25;;;1.02;;
75993;SDS011;64680;53.800;9.988;2023-04-25T10:18:24;3.83;;;0.75;;
75993;SDS011;64680;53.800;9.988;2023-04-25T10:23:18;5.38;;;0.75;;
75993;SDS011;64680;53.800;9.988;2023-04-25T10:25:45;6.78;;;1.00;;
75993;SDS011;64680;53.800;9.988;2023-04-25T10:28:11;5.68;;;1.17;;
75993;SDS011;64680;53.800;9.988;2023-04-25T10:30:37;7.50;;;0.93;;
75993;SDS011;64680;53.800;9.988;2023-04-25T10:33:03;8.18;;;1.20;;
75993;SDS011;64680;53.800;9.988;2023-04-25T10:35:42;6.80;;;1.17;;
75993;SDS011;64680;53.800;9.988;2023-04-25T10:38:10;5.38;;;0.50;;
75993;SDS011;64680;53.800;9.988;2023-04-25T10:40:37;6.32;;;1.13;;
75993;SDS011;64680;53.800;9.988;2023-04-25T10:48:52;3.28;;;0.63;;
75993;SDS011;64680;53.800;9.988;2023-04-25T10:51:28;3.05;;;0.52;;
75993;SDS011;64680;53.800;9.988;2023-04-25T10:54:04;5.05;;;0.55;;
75993;SDS011;64680;53.800;9.988;2023-04-25T11:04:28;7.38;;;1.42;;
75993;SDS011;64680;53.800;9.988;2023-04-25T11:06:58;4.25;;;0.77;;
75993;SDS011;64680;53.800;9.988;2023-04-25T11:09:43;5.40;;;1.10;;
75993;SDS011;64680;53.800;9.988;2023-04-25T11:12:10;3.95;;;0.82;;
75993;SDS011;64680;53.800;9.988;2023-04-25T11:14:40;5.75;;;1.05;;
75993;SDS011;64680;53.800;9.988;2023-04-25T11:17:05;5.85;;;1.02;;
75993;SDS011;64680;53.800;9.988;2023-04-25T11:19:31;5.40;;;0.75;;
75993;SDS011;64680;53.800;9.988;2023-04-25T11:21:58;5.03;;;0.75;;
75993;SDS011;64680;53.800;9.988;2023-04-25T11:24:28;7.43;;;1.55;;
75993;SDS011;64680;53.800;9.988;2023-04-25T11:26:56;4.03;;;0.93;;
75993;SDS011;64680;53.800;9.988;2023-04-25T11:29:23;6.00;;;0.85;;
75993;SDS011;64680;53.800;9.988;2023-04-25T11:31:52;3.78;;;0.40;;
75993;SDS011;64680;53.800;9.988;2023-04-25T11:34:20;3.20;;;0.80;;
75993;SDS011;64680;53.800;9.988;2023-04-25T11:36:47;2.55;;;1.15;;
75993;SDS011;64680;53.800;9.988;2023-04-25T11:39:12;3.60;;;0.70;;
75993;SDS011;64680;53.800;9.988;2023-04-25T11:41:38;5.75;;;0.75;;
75993;SDS011;64680;53.800;9.988;2023-04-25T11:44:04;2.92;;;0.68;;
75993;SDS011;64680;53.800;9.988;2023-04-25T11:46:30;8.50;;;1.23;;
75993;SDS011;64680;53.800;9.988;2023-04-25T11:48:59;6.68;;;0.85;;
75993;SDS011;64680;53.800;9.988;2023-04-25T11:51:25;3.53;;;0.75;;
75993;SDS011;64680;53.800;9.988;2023-04-25T11:53:51;3.47;;;0.80;;
75993;SDS011;64680;53.800;9.988;2023-04-25T11:56:16;3.05;;;0.40;;
75993;SDS011;64680;53.800;9.988;2023-04-25T11:59:01;3.55;;;0.60;;
75993;SDS011;64680;53.800;9.988;2023-04-25T12:01:32;3.58;;;1.10;;
75993;SDS011;64680;53.800;9.988;2023-04-25T12:04:09;5.13;;;0.80;;
75993;SDS011;64680;53.800;9.988;2023-04-25T12:06:36;4.35;;;0.82;;
75993;SDS011;64680;53.800;9.988;2023-04-25T12:09:06;3.85;;;0.50;;
75993;SDS011;64680;53.800;9.988;2023-04-25T12:11:43;4.22;;;0.95;;
75993;SDS011;64680;53.800;9.988;2023-04-25T12:14:31;3.85;;;0.60;;
75993;SDS011;64680;53.800;9.988;2023-04-25T12:16:58;4.80;;;0.93;;
75993;SDS011;64680;53.800;9.988;2023-04-25T12:19:25;2.13;;;0.65;;
75993;SDS011;64680;53.800;9.988;2023-04-25T12:21:56;5.28;;;0.70;;
75993;SDS011;64680;53.800;9.988;2023-04-25T12:24:23;4.28;;;1.02;;
75993;SDS011;64680;53.800;9.988;2023-04-25T12:26:53;3.67;;;0.70;;
75993;SDS011;64680;53.800;9.988;2023-04-25T12:29:27;4.43;;;0.82;;
75993;SDS011;64680;53.800;9.988;2023-04-25T12:31:54;5.30;;;0.88;;
75993;SDS011;64680;53.800;9.988;2023-04-25T12:34:21;6.28;;;0.95;;
75993;SDS011;64680;53.800;9.988;2023-04-25T12:36:48;5.28;;;0.77;;
75993;SDS011;64680;53.800;9.988;2023-04-25T12:39:15;7.28;;;0.90;;
75993;SDS011;64680;53.800;9.988;2023-04-25T12:41:44;5.18;;;0.88;;
75993;SDS011;64680;53.800;9.988;2023-04-25T12:44:11;5.25;;;0.77;;
75993;SDS011;64680;53.800;9.988;2023-04-25T12:46:37;4.57;;;0.52;;
75993;SDS011;64680;53.800;9.988;2023-04-25T12:49:03;3.10;;;0.90;;
75993;SDS011;64680;53.800;9.988;2023-04-25T12:51:29;3.78;;;0.50;;
75993;SDS011;64680;53.800;9.988;2023-04-25T12:53:55;2.22;;;0.43;;
75993;SDS011;64680;53.800;9.988;2023-04-25T12:56:21;2.95;;;0.40;;
75993;SDS011;64680;53.800;9.988;2023-04-25T12:58:46;6.30;;;0.90;;
75993;SDS011;64680;53.800;9.988;2023-04-25T13:01:13;6.00;;;0.85;;
75993;SDS011;64680;53.800;9.988;2023-04-25T13:03:39;3.25;;;0.57;;
75993;SDS011;64680;53.800;9.988;2023-04-25T13:06:05;3.85;;;0.68;;
75993;SDS011;64680;53.800;9.988;2023-04-25T13:08:31;3.92;;;0.73;;
75993;SDS011;64680;53.800;9.988;2023-04-25T13:10:57;4.25;;;0.65;;
75993;SDS011;64680;53.800;9.988;2023-04-25T13:13:23;5.10;;;0.50;;
75993;SDS011;64680;53.800;9.988;2023-04-25T13:15:48;6.07;;;0.88;;
75993;SDS011;64680;53.800;9.988;2023-04-25T13:18:14;4.53;;;1.02;;
75993;SDS011;64680;53.800;9.988;2023-04-25T13:20:40;5.75;;;1.15;;
75993;SDS011;64680;53.800;9.988;2023-04-25T13:23:05;3.33;;;0.50;;
75993;SDS011;64680;53.800;9.988;2023-04-25T13:25:31;6.13;;;0.57;;
75993;SDS011;64680;53.800;9.988;2023-04-25T13:27:57;2.78;;;0.65;;
75993;SDS011;64680;53.800;9.988;2023-04-25T13:30:22;2.60;;;0.63;;
75993;SDS011;64680;53.800;9.988;2023-04-25T13:32:48;2.88;;;1.00;;
75993;SDS011;64680;53.800;9.988;2023-04-25T13:35:13;1.88;;;0.60;;
75993;SDS011;64680;53.800;9.988;2023-04-25T13:37:40;5.80;;;1.23;;
75993;SDS011;64680;53.800;9.988;2023-04-25T13:40:06;7.00;;;1.13;;
75993;SDS011;64680;53.800;9.988;2023-04-25T13:42:35;4.28;;;1.00;;
75993;SDS011;64680;53.800;9.988;2023-04-25T13:45:01;6.35;;;0.90;;
75993;SDS011;64680;53.800;9.988;2023-04-25T13:47:28;5.82;;;1.10;;
75993;SDS011;64680;53.800;9.988;2023-04-25T13:49:55;5.10;;;0.95;;
75993;SDS011;64680;53.800;9.988;2023-04-25T13:52:21;4.93;;;0.77;;
75993;SDS011;64680;53.800;9.988;2023-04-25T13:54:46;6.50;;;0.98;;
75993;SDS011;64680;53.800;9.988;2023-04-25T13:57:12;6.28;;;0.98;;
75993;SDS011;64680;53.800;9.988;2023-04-25T13:59:38;5.05;;;1.02;;
75993;SDS011;64680;53.800;9.988;2023-04-25T14:02:05;5.53;;;0.80;;
75993;SDS011;64680;53.800;9.988;2023-04-25T14:04:32;3.65;;;0.60;;
75993;SDS011;64680;53.800;9.988;2023-04-25T14:06:58;4.70;;;0.98;;
75993;SDS011;64680;53.800;9.988;2023-04-25T14:09:23;5.22;;;0.68;;
75993;SDS011;64680;53.800;9.988;2023-04-25T14:11:51;5.18;;;0.90;;
75993;SDS011;64680;53.800;9.988;2023-04-25T14:14:17;2.72;;;0.55;;
75993;SDS011;64680;53.800;9.988;2023-04-25T14:16:43;3.35;;;0.80;;
75993;SDS011;64680;53.800;9.988;2023-04-25T14:19:09;5.63;;;0.73;;
75993;SDS011;64680;53.800;9.988;2023-04-25T14:21:36;4.72;;;0.60;;
75993;SDS011;64680;53.800;9.988;2023-04-25T14:24:02;6.80;;;1.33;;
75993;SDS011;64680;53.800;9.988;2023-04-25T14:26:29;8.07;;;0.80;;
75993;SDS011;64680;53.800;9.988;2023-04-25T14:28:55;4.93;;;0.95;;
75993;SDS011;64680;53.800;9.988;2023-04-25T14:31:20;6.70;;;1.10;;
75993;SDS011;64680;53.800;9.988;2023-04-25T14:33:46;4.30;;;0.80;;
75993;SDS011;64680;53.800;9.988;2023-04-25T14:36:12;7.20;;;1.15;;
75993;SDS011;64680;53.800;9.988;2023-04-25T14:38:37;5.85;;;0.88;;
75993;SDS011;64680;53.800;9.988;2023-04-25T14:41:03;4.57;;;1.15;;
75993;SDS011;64680;53.800;9.988;2023-04-25T14:43:28;5.13;;;1.10;;
75993;SDS011;64680;53.800;9.988;2023-04-25T14:45:54;7.43;;;1.13;;
75993;SDS011;64680;53.800;9.988;2023-04-25T14:48:20;6.25;;;1.08;;
75993;SDS011;64680;53.800;9.988;2023-04-25T14:50:45;2.75;;;0.82;;
75993;SDS011;64680;53.800;9.988;2023-04-25T14:53:11;6.72;;;1.10;;
75993;SDS011;64680;53.800;9.988;2023-04-25T14:55:37;7.35;;;1.75;;
75993;SDS011;64680;53.800;9.988;2023-04-25T14:58:03;4.50;;;1.23;;
75993;SDS011;64680;53.800;9.988;2023-04-25T15:00:29;5.20;;;1.13;;
75993;SDS011;64680;53.800;9.988;2023-04-25T15:02:56;2.53;;;0.63;;
75993;SDS011;64680;53.800;9.988;2023-04-25T15:05:22;9.20;;;1.48;;
75993;SDS011;64680;53.800;9.988;2023-04-25T15:07:48;4.40;;;1.10;;
75993;SDS011;64680;53.800;9.988;2023-04-25T15:10:14;6.78;;;0.77;;